sensor_id;sensor_type;location;lat;lon;timestamp;P1;durP1;ratioP1;P2;durP2;ratioP2
5147;SDS011;2592;48.140;7.614;2023-12-22T00:00:44;4.20;;;1.47;;
5147;SDS011;2592;48.140;7.614;2023-12-22T00:03:12;7.43;;;1.97;;
5147;SDS011;2592;48.140;7.614;2023-12-22T00:05:38;4.67;;;1.73;;
5147;SDS011;2592;48.140;7.614;2023-12-22T00:08:06;4.37;;;1.63;;
5147;SDS011;2592;48.140;7.614;2023-12-22T00:10:33;6.27;;;2.03;;
5147;SDS011;2592;48.140;7.614;2023-12-22T00:12:59;11.90;;;1.47;;
5147;SDS011;2592;48.140;7.614;2023-12-22T00:15:25;3.57;;;1.70;;
5147;SDS011;2592;48.140;7.614;2023-12-22T00:17:52;6.90;;;1.40;;
5147;SDS011;2592;48.140;7.614;2023-12-22T00:20:18;5.53;;;1.53;;
5147;SDS011;2592;48.140;7.614;2023-12-22T00:22:45;6.30;;;1.63;;
5147;SDS011;2592;48.140;7.614;2023-12-22T00:25:13;3.10;;;1.10;;
5147;SDS011;2592;48.140;7.614;2023-12-22T00:27:39;4.13;;;1.43;;
5147;SDS011;2592;48.140;7.614;2023-12-22T00:30:06;3.67;;;1.20;;
5147;SDS011;2592;48.140;7.614;2023-12-22T00:32:32;2.90;;;1.60;;
5147;SDS011;2592;48.140;7.614;2023-12-22T00:34:59;4.73;;;1.23;;
5147;SDS011;2592;48.140;7.614;2023-12-22T00:37:25;4.43;;;1.60;;
5147;SDS011;2592;48.140;7.614;2023-12-22T00:39:52;5.97;;;1.73;;
5147;SDS011;2592;48.140;7.614;2023-12-22T00:42:19;7.17;;;2.00;;
5147;SDS011;2592;48.140;7.614;2023-12-22T00:44:46;4.83;;;1.83;;
5147;SDS011;2592;48.140;7.614;2023-12-22T00:47:12;4.43;;;1.23;;
5147;SDS011;2592;48.140;7.614;2023-12-22T00:49:39;3.90;;;1.20;;
5147;SDS011;2592;48.140;7.614;2023-12-22T00:52:05;5.93;;;1.37;;
5147;SDS011;2592;48.140;7.614;2023-12-22T00:54:31;4.77;;;1.50;;
5147;SDS011;2592;48.140;7.614;2023-12-22T00:56:58;3.00;;;1.17;;
5147;SDS011;2592;48.140;7.614;2023-12-22T00:59:26;5.00;;;1.03;;
5147;SDS011;2592;48.140;7.614;2023-12-22T01:01:52;7.73;;;1.37;;
5147;SDS011;2592;48.140;7.614;2023-12-22T01:04:18;2.53;;;1.03;;
5147;SDS011;2592;48.140;7.614;2023-12-22T01:06:45;7.20;;;1.50;;
5147;SDS011;2592;48.140;7.614;2023-12-22T01:09:11;3.73;;;1.40;;
5147;SDS011;2592;48.140;7.614;2023-12-22T01:11:39;3.23;;;1.20;;
5147;SDS011;2592;48.140;7.614;2023-12-22T01:14:06;2.43;;;1.20;;
5147;SDS011;2592;48.140;7.614;2023-12-22T01:16:34;4.23;;;1.83;;
5147;SDS011;2592;48.140;7.614;2023-12-22T01:19:00;3.60;;;1.50;;
5147;SDS011;2592;48.140;7.614;2023-12-22T01:21:27;6.87;;;1.97;;
5147;SDS011;2592;48.140;7.614;2023-12-22T01:23:53;3.50;;;1.47;;
5147;SDS011;2592;48.140;7.614;2023-12-22T01:26:20;5.00;;;2.10;;
5147;SDS011;2592;48.140;7.614;2023-12-22T01:28:46;5.10;;;1.57;;
5147;SDS011;2592;48.140;7.614;2023-12-22T01:31:13;5.13;;;1.60;;
5147;SDS011;2592;48.140;7.614;2023-12-22T01:33:40;6.20;;;1.70;;
5147;SDS011;2592;48.140;7.614;2023-12-22T01:36:07;3.53;;;1.20;;
5147;SDS011;2592;48.140;7.614;2023-12-22T01:38:34;6.37;;;1.90;;
5147;SDS011;2592;48.140;7.614;2023-12-22T01:41:00;4.90;;;1.63;;
5147;SDS011;2592;48.140;7.614;2023-12-22T01:43:26;11.07;;;1.63;;
5147;SDS011;2592;48.140;7.614;2023-12-22T01:45:54;7.33;;;2.10;;
5147;SDS011;2592;48.140;7.614;2023-12-22T01:48:21;5.67;;;1.73;;
5147;SDS011;2592;48.140;7.614;2023-12-22T01:50:49;5.10;;;1.43;;
5147;SDS011;2592;48.140;7.614;2023-12-22T01:53:17;6.30;;;1.47;;
5147;SDS011;2592;48.140;7.614;2023-12-22T01:55:42;5.53;;;1.77;;
5147;SDS011;2592;48.140;7.614;2023-12-22T01:58:09;4.40;;;1.20;;
5147;SDS011;2592;48.140;7.614;2023-12-22T02:00:36;3.90;;;1.27;;
5147;SDS011;2592;48.140;7.614;2023-12-22T02:03:02;7.53;;;1.43;;
5147;SDS011;2592;48.140;7.614;2023-12-22T02:05:29;5.90;;;1.70;;
5147;SDS011;2592;48.140;7.614;2023-12-22T02:07:57;10.03;;;2.13;;
5147;SDS011;2592;48.140;7.614;2023-12-22T02:10:23;5.57;;;1.60;;
5147;SDS011;2592;48.140;7.614;2023-12-22T02:12:50;2.43;;;1.30;;
5147;SDS011;2592;48.140;7.614;2023-12-22T02:15:16;1.90;;;1.10;;
5147;SDS011;2592;48.140;7.614;2023-12-22T02:17:43;5.43;;;1.60;;
5147;SDS011;2592;48.140;7.614;2023-12-22T02:20:10;5.00;;;1.87;;
5147;SDS011;2592;48.140;7.614;2023-12-22T02:22:38;5.70;;;1.50;;
5147;SDS011;2592;48.140;7.614;2023-12-22T02:25:05;5.87;;;1.67;;
5147;SDS011;2592;48.140;7.614;2023-12-22T02:27:33;4.40;;;1.30;;
5147;SDS011;2592;48.140;7.614;2023-12-22T02:30:02;4.40;;;1.60;;
5147;SDS011;2592;48.140;7.614;2023-12-22T02:32:30;3.07;;;1.30;;
5147;SDS011;2592;48.140;7.614;2023-12-22T02:34:57;6.30;;;1.60;;
5147;SDS011;2592;48.140;7.614;2023-12-22T02:37:24;5.27;;;1.50;;
5147;SDS011;2592;48.140;7.614;2023-12-22T02:39:52;9.63;;;2.20;;
5147;SDS011;2592;48.140;7.614;2023-12-22T02:42:19;9.10;;;2.13;;
5147;SDS011;2592;48.140;7.614;2023-12-22T02:44:49;10.87;;;2.10;;
5147;SDS011;2592;48.140;7.614;2023-12-22T02:47:16;9.53;;;2.20;;
5147;SDS011;2592;48.140;7.614;2023-12-22T02:49:43;7.77;;;2.40;;
5147;SDS011;2592;48.140;7.614;2023-12-22T02:52:09;4.90;;;2.10;;
5147;SDS011;2592;48.140;7.614;2023-12-22T02:54:35;7.30;;;2.03;;
5147;SDS011;2592;48.140;7.614;2023-12-22T02:57:06;7.37;;;2.40;;
5147;SDS011;2592;48.140;7.614;2023-12-22T02:59:32;6.27;;;1.87;;
5147;SDS011;2592;48.140;7.614;2023-12-22T03:01:59;6.83;;;1.60;;
5147;SDS011;2592;48.140;7.614;2023-12-22T03:04:25;10.77;;;2.80;;
5147;SDS011;2592;48.140;7.614;2023-12-22T03:06:52;10.43;;;2.20;;
5147;SDS011;2592;48.140;7.614;2023-12-22T03:09:18;8.17;;;2.27;;
5147;SDS011;2592;48.140;7.614;2023-12-22T03:11:44;8.37;;;2.10;;
5147;SDS011;2592;48.140;7.614;2023-12-22T03:14:12;9.83;;;2.30;;
5147;SDS011;2592;48.140;7.614;2023-12-22T03:16:39;9.57;;;2.43;;
5147;SDS011;2592;48.140;7.614;2023-12-22T03:19:06;8.63;;;1.97;;
5147;SDS011;2592;48.140;7.614;2023-12-22T03:21:32;6.50;;;2.07;;
5147;SDS011;2592;48.140;7.614;2023-12-22T03:23:59;7.30;;;2.50;;
5147;SDS011;2592;48.140;7.614;2023-12-22T03:26:26;9.07;;;2.90;;
5147;SDS011;2592;48.140;7.614;2023-12-22T03:28:52;12.17;;;2.40;;
5147;SDS011;2592;48.140;7.614;2023-12-22T03:31:20;14.20;;;2.80;;
5147;SDS011;2592;48.140;7.614;2023-12-22T03:33:46;8.87;;;2.70;;
5147;SDS011;2592;48.140;7.614;2023-12-22T03:36:13;8.90;;;2.27;;
5147;SDS011;2592;48.140;7.614;2023-12-22T03:38:39;12.27;;;2.70;;
5147;SDS011;2592;48.140;7.614;2023-12-22T03:41:06;11.00;;;2.90;;
5147;SDS011;2592;48.140;7.614;2023-12-22T03:43:31;9.17;;;2.60;;
5147;SDS011;2592;48.140;7.614;2023-12-22T03:45:58;7.50;;;2.17;;
5147;SDS011;2592;48.140;7.614;2023-12-22T03:48:24;9.50;;;2.80;;
5147;SDS011;2592;48.140;7.614;2023-12-22T03:50:51;17.20;;;2.90;;
5147;SDS011;2592;48.140;7.614;2023-12-22T03:53:17;15.73;;;3.63;;
5147;SDS011;2592;48.140;7.614;2023-12-22T03:55:44;5.90;;;2.20;;
5147;SDS011;2592;48.140;7.614;2023-12-22T03:58:11;10.53;;;2.83;;
5147;SDS011;2592;48.140;7.614;2023-12-22T04:00:37;9.37;;;2.60;;
5147;SDS011;2592;48.140;7.614;2023-12-22T04:03:04;8.37;;;2.20;;
5147;SDS011;2592;48.140;7.614;2023-12-22T04:05:31;7.37;;;2.40;;
5147;SDS011;2592;48.140;7.614;2023-12-22T04:07:58;11.93;;;2.63;;
5147;SDS011;2592;48.140;7.614;2023-12-22T04:10:24;8.50;;;2.60;;
5147;SDS011;2592;48.140;7.614;2023-12-22T04:12:51;16.10;;;3.23;;
5147;SDS011;2592;48.140;7.614;2023-12-22T04:15:17;9.30;;;2.57;;
5147;SDS011;2592;48.140;7.614;2023-12-22T04:17:43;9.50;;;3.23;;
5147;SDS011;2592;48.140;7.614;2023-12-22T04:20:10;10.80;;;2.80;;
5147;SDS011;2592;48.140;7.614;2023-12-22T04:22:37;9.40;;;2.07;;
5147;SDS011;2592;48.140;7.614;2023-12-22T04:25:03;5.00;;;1.90;;
5147;SDS011;2592;48.140;7.614;2023-12-22T04:27:31;11.37;;;3.03;;
5147;SDS011;2592;48.140;7.614;2023-12-22T04:29:57;12.07;;;3.13;;
5147;SDS011;2592;48.140;7.614;2023-12-22T04:32:24;8.60;;;2.77;;
5147;SDS011;2592;48.140;7.614;2023-12-22T04:34:50;12.33;;;3.10;;
5147;SDS011;2592;48.140;7.614;2023-12-22T04:37:16;7.60;;;2.60;;
5147;SDS011;2592;48.140;7.614;2023-12-22T04:39:44;6.63;;;3.07;;
5147;SDS011;2592;48.140;7.614;2023-12-22T04:42:11;10.30;;;3.00;;
5147;SDS011;2592;48.140;7.614;2023-12-22T04:44:37;10.63;;;2.87;;
5147;SDS011;2592;48.140;7.614;2023-12-22T04:47:04;13.63;;;3.93;;
5147;SDS011;2592;48.140;7.614;2023-12-22T04:49:30;13.50;;;3.40;;
5147;SDS011;2592;48.140;7.614;2023-12-22T04:51:56;6.93;;;2.20;;
5147;SDS011;2592;48.140;7.614;2023-12-22T04:54:23;7.93;;;2.17;;
5147;SDS011;2592;48.140;7.614;2023-12-22T04:56:50;17.83;;;3.43;;
5147;SDS011;2592;48.140;7.614;2023-12-22T04:59:17;9.27;;;2.10;;
5147;SDS011;2592;48.140;7.614;2023-12-22T05:01:43;10.63;;;2.57;;
5147;SDS011;2592;48.140;7.614;2023-12-22T05:04:10;16.83;;;3.00;;
5147;SDS011;2592;48.140;7.614;2023-12-22T05:06:37;14.47;;;3.57;;
5147;SDS011;2592;48.140;7.614;2023-12-22T05:09:03;5.50;;;2.57;;
5147;SDS011;2592;48.140;7.614;2023-12-22T05:11:30;12.07;;;2.57;;
5147;SDS011;2592;48.140;7.614;2023-12-22T05:13:57;12.83;;;2.73;;
5147;SDS011;2592;48.140;7.614;2023-12-22T05:16:24;8.40;;;2.80;;
5147;SDS011;2592;48.140;7.614;2023-12-22T05:18:50;6.70;;;2.40;;
5147;SDS011;2592;48.140;7.614;2023-12-22T05:21:17;9.10;;;2.70;;
5147;SDS011;2592;48.140;7.614;2023-12-22T05:23:43;12.07;;;3.03;;
5147;SDS011;2592;48.140;7.614;2023-12-22T05:26:09;11.00;;;3.57;;
5147;SDS011;2592;48.140;7.614;2023-12-22T05:28:36;10.53;;;3.33;;
5147;SDS011;2592;48.140;7.614;2023-12-22T05:31:03;13.40;;;4.33;;
5147;SDS011;2592;48.140;7.614;2023-12-22T05:33:30;9.77;;;3.13;;
5147;SDS011;2592;48.140;7.614;2023-12-22T05:35:56;8.30;;;2.97;;
5147;SDS011;2592;48.140;7.614;2023-12-22T05:38:23;10.30;;;2.50;;
5147;SDS011;2592;48.140;7.614;2023-12-22T05:40:49;7.97;;;2.60;;
5147;SDS011;2592;48.140;7.614;2023-12-22T05:43:15;5.87;;;1.93;;
5147;SDS011;2592;48.140;7.614;2023-12-22T05:45:42;6.60;;;2.07;;
5147;SDS011;2592;48.140;7.614;2023-12-22T05:48:10;4.70;;;2.33;;
5147;SDS011;2592;48.140;7.614;2023-12-22T05:50:36;11.17;;;4.87;;
5147;SDS011;2592;48.140;7.614;2023-12-22T05:53:04;8.93;;;2.40;;
5147;SDS011;2592;48.140;7.614;2023-12-22T05:55:30;6.43;;;2.60;;
5147;SDS011;2592;48.140;7.614;2023-12-22T05:57:55;9.53;;;2.40;;
5147;SDS011;2592;48.140;7.614;2023-12-22T06:00:22;6.60;;;2.30;;
5147;SDS011;2592;48.140;7.614;2023-12-22T06:02:49;7.30;;;2.80;;
5147;SDS011;2592;48.140;7.614;2023-12-22T06:05:16;10.07;;;3.20;;
5147;SDS011;2592;48.140;7.614;2023-12-22T06:07:43;13.47;;;3.40;;
5147;SDS011;2592;48.140;7.614;2023-12-22T06:10:09;13.80;;;4.47;;
5147;SDS011;2592;48.140;7.614;2023-12-22T06:12:36;5.67;;;2.60;;
5147;SDS011;2592;48.140;7.614;2023-12-22T06:15:02;7.93;;;2.90;;
5147;SDS011;2592;48.140;7.614;2023-12-22T06:17:29;12.70;;;3.50;;
5147;SDS011;2592;48.140;7.614;2023-12-22T06:19:55;9.33;;;2.33;;
5147;SDS011;2592;48.140;7.614;2023-12-22T06:22:23;12.07;;;8.20;;
5147;SDS011;2592;48.140;7.614;2023-12-22T06:24:49;15.13;;;3.63;;
5147;SDS011;2592;48.140;7.614;2023-12-22T06:27:16;8.97;;;2.87;;
5147;SDS011;2592;48.140;7.614;2023-12-22T06:29:42;9.70;;;2.83;;
5147;SDS011;2592;48.140;7.614;2023-12-22T06:32:09;11.63;;;3.17;;
5147;SDS011;2592;48.140;7.614;2023-12-22T06:34:35;16.83;;;2.90;;
5147;SDS011;2592;48.140;7.614;2023-12-22T06:37:02;6.43;;;2.20;;
5147;SDS011;2592;48.140;7.614;2023-12-22T06:39:29;12.40;;;4.30;;
5147;SDS011;2592;48.140;7.614;2023-12-22T06:41:56;16.70;;;8.30;;
5147;SDS011;2592;48.140;7.614;2023-12-22T06:44:22;7.47;;;2.77;;
5147;SDS011;2592;48.140;7.614;2023-12-22T06:46:50;9.73;;;3.07;;
5147;SDS011;2592;48.140;7.614;2023-12-22T06:49:17;5.80;;;2.57;;
5147;SDS011;2592;48.140;7.614;2023-12-22T06:51:44;9.83;;;3.83;;
5147;SDS011;2592;48.140;7.614;2023-12-22T06:54:10;10.43;;;3.63;;
5147;SDS011;2592;48.140;7.614;2023-12-22T06:56:38;10.93;;;4.20;;
5147;SDS011;2592;48.140;7.614;2023-12-22T06:59:05;10.40;;;3.60;;
5147;SDS011;2592;48.140;7.614;2023-12-22T07:01:32;9.70;;;3.30;;
5147;SDS011;2592;48.140;7.614;2023-12-22T07:03:59;7.83;;;3.13;;
5147;SDS011;2592;48.140;7.614;2023-12-22T07:06:27;8.53;;;2.37;;
5147;SDS011;2592;48.140;7.614;2023-12-22T07:08:57;9.97;;;2.97;;
5147;SDS011;2592;48.140;7.614;2023-12-22T07:11:46;13.13;;;4.20;;
5147;SDS011;2592;48.140;7.614;2023-12-22T07:14:12;8.87;;;3.03;;
5147;SDS011;2592;48.140;7.614;2023-12-22T07:16:40;8.33;;;2.90;;
5147;SDS011;2592;48.140;7.614;2023-12-22T07:19:07;13.13;;;2.77;;
5147;SDS011;2592;48.140;7.614;2023-12-22T07:21:34;5.60;;;2.00;;
5147;SDS011;2592;48.140;7.614;2023-12-22T07:24:00;7.67;;;2.30;;
5147;SDS011;2592;48.140;7.614;2023-12-22T07:26:27;7.87;;;2.50;;
5147;SDS011;2592;48.140;7.614;2023-12-22T07:28:54;7.20;;;2.27;;
5147;SDS011;2592;48.140;7.614;2023-12-22T07:31:21;7.47;;;2.10;;
5147;SDS011;2592;48.140;7.614;2023-12-22T07:33:47;6.50;;;2.60;;
5147;SDS011;2592;48.140;7.614;2023-12-22T07:36:14;6.23;;;2.37;;
5147;SDS011;2592;48.140;7.614;2023-12-22T07:38:40;8.50;;;2.67;;
5147;SDS011;2592;48.140;7.614;2023-12-22T07:41:06;5.50;;;2.57;;
5147;SDS011;2592;48.140;7.614;2023-12-22T07:43:33;13.73;;;3.10;;
5147;SDS011;2592;48.140;7.614;2023-12-22T07:46:01;33.10;;;16.77;;
5147;SDS011;2592;48.140;7.614;2023-12-22T07:48:27;60.63;;;48.23;;
5147;SDS011;2592;48.140;7.614;2023-12-22T07:50:54;30.20;;;22.83;;
5147;SDS011;2592;48.140;7.614;2023-12-22T07:53:20;10.67;;;4.20;;
5147;SDS011;2592;48.140;7.614;2023-12-22T07:55:47;7.47;;;3.97;;
5147;SDS011;2592;48.140;7.614;2023-12-22T07:58:13;7.00;;;3.23;;
5147;SDS011;2592;48.140;7.614;2023-12-22T08:00:40;9.50;;;4.00;;
5147;SDS011;2592;48.140;7.614;2023-12-22T08:03:08;12.73;;;6.43;;
5147;SDS011;2592;48.140;7.614;2023-12-22T08:05:35;12.03;;;4.90;;
5147;SDS011;2592;48.140;7.614;2023-12-22T08:08:01;7.90;;;3.00;;
5147;SDS011;2592;48.140;7.614;2023-12-22T08:10:27;14.83;;;3.73;;
5147;SDS011;2592;48.140;7.614;2023-12-22T08:12:54;13.73;;;3.50;;
5147;SDS011;2592;48.140;7.614;2023-12-22T08:15:20;15.33;;;7.97;;
5147;SDS011;2592;48.140;7.614;2023-12-22T08:17:47;13.80;;;4.00;;
5147;SDS011;2592;48.140;7.614;2023-12-22T08:20:17;10.03;;;4.87;;
5147;SDS011;2592;48.140;7.614;2023-12-22T08:22:44;12.20;;;4.63;;
5147;SDS011;2592;48.140;7.614;2023-12-22T08:25:10;11.37;;;3.27;;
5147;SDS011;2592;48.140;7.614;2023-12-22T08:27:37;7.20;;;4.63;;
5147;SDS011;2592;48.140;7.614;2023-12-22T08:30:03;10.90;;;3.10;;
5147;SDS011;2592;48.140;7.614;2023-12-22T08:32:30;15.07;;;5.50;;
5147;SDS011;2592;48.140;7.614;2023-12-22T08:34:56;8.10;;;2.60;;
5147;SDS011;2592;48.140;7.614;2023-12-22T08:37:24;7.70;;;2.73;;
5147;SDS011;2592;48.140;7.614;2023-12-22T08:39:50;11.40;;;2.57;;
5147;SDS011;2592;48.140;7.614;2023-12-22T08:42:17;7.27;;;2.90;;
5147;SDS011;2592;48.140;7.614;2023-12-22T08:44:44;8.67;;;3.23;;
5147;SDS011;2592;48.140;7.614;2023-12-22T08:47:10;9.43;;;3.63;;
5147;SDS011;2592;48.140;7.614;2023-12-22T08:49:37;11.37;;;3.83;;
5147;SDS011;2592;48.140;7.614;2023-12-22T08:52:03;13.20;;;3.90;;
5147;SDS011;2592;48.140;7.614;2023-12-22T08:54:31;5.83;;;3.10;;
5147;SDS011;2592;48.140;7.614;2023-12-22T08:56:59;10.67;;;4.70;;
5147;SDS011;2592;48.140;7.614;2023-12-22T08:59:26;7.33;;;3.33;;
5147;SDS011;2592;48.140;7.614;2023-12-22T09:01:52;10.10;;;3.03;;
5147;SDS011;2592;48.140;7.614;2023-12-22T09:04:18;8.80;;;3.37;;
5147;SDS011;2592;48.140;7.614;2023-12-22T09:06:47;5.30;;;2.30;;
5147;SDS011;2592;48.140;7.614;2023-12-22T09:09:14;6.53;;;3.13;;
5147;SDS011;2592;48.140;7.614;2023-12-22T09:11:41;9.70;;;2.73;;
5147;SDS011;2592;48.140;7.614;2023-12-22T09:14:08;8.63;;;2.93;;
5147;SDS011;2592;48.140;7.614;2023-12-22T09:16:35;9.00;;;2.37;;
5147;SDS011;2592;48.140;7.614;2023-12-22T09:19:01;9.07;;;2.83;;
5147;SDS011;2592;48.140;7.614;2023-12-22T09:21:28;18.00;;;7.10;;
5147;SDS011;2592;48.140;7.614;2023-12-22T09:23:54;22.93;;;8.77;;
5147;SDS011;2592;48.140;7.614;2023-12-22T09:26:20;12.73;;;3.77;;
5147;SDS011;2592;48.140;7.614;2023-12-22T09:28:48;17.93;;;3.50;;
5147;SDS011;2592;48.140;7.614;2023-12-22T09:31:15;10.57;;;3.90;;
5147;SDS011;2592;48.140;7.614;2023-12-22T09:33:41;11.80;;;4.53;;
5147;SDS011;2592;48.140;7.614;2023-12-22T09:36:08;11.10;;;3.73;;
5147;SDS011;2592;48.140;7.614;2023-12-22T09:38:34;10.73;;;3.03;;
5147;SDS011;2592;48.140;7.614;2023-12-22T09:41:01;14.43;;;3.17;;
5147;SDS011;2592;48.140;7.614;2023-12-22T09:43:27;12.03;;;3.67;;
5147;SDS011;2592;48.140;7.614;2023-12-22T09:45:56;11.50;;;3.10;;
5147;SDS011;2592;48.140;7.614;2023-12-22T09:48:23;14.63;;;3.50;;
5147;SDS011;2592;48.140;7.614;2023-12-22T09:50:52;10.60;;;3.83;;
5147;SDS011;2592;48.140;7.614;2023-12-22T09:53:19;12.20;;;3.90;;
5147;SDS011;2592;48.140;7.614;2023-12-22T09:55:45;13.90;;;4.00;;
5147;SDS011;2592;48.140;7.614;2023-12-22T09:58:12;12.90;;;5.10;;
5147;SDS011;2592;48.140;7.614;2023-12-22T10:00:40;15.70;;;4.40;;
5147;SDS011;2592;48.140;7.614;2023-12-22T10:03:08;11.23;;;4.93;;
5147;SDS011;2592;48.140;7.614;2023-12-22T10:05:35;11.53;;;4.63;;
5147;SDS011;2592;48.140;7.614;2023-12-22T10:08:02;12.50;;;3.47;;
5147;SDS011;2592;48.140;7.614;2023-12-22T10:10:28;12.27;;;3.73;;
5147;SDS011;2592;48.140;7.614;2023-12-22T10:12:56;11.57;;;3.87;;
5147;SDS011;2592;48.140;7.614;2023-12-22T10:15:23;11.30;;;3.70;;
5147;SDS011;2592;48.140;7.614;2023-12-22T10:17:49;12.33;;;4.27;;
5147;SDS011;2592;48.140;7.614;2023-12-22T10:20:17;14.43;;;4.23;;
5147;SDS011;2592;48.140;7.614;2023-12-22T10:22:44;18.63;;;4.57;;
5147;SDS011;2592;48.140;7.614;2023-12-22T10:25:11;15.93;;;4.00;;
5147;SDS011;2592;48.140;7.614;2023-12-22T10:27:41;14.40;;;4.53;;
5147;SDS011;2592;48.140;7.614;2023-12-22T10:30:08;18.03;;;4.60;;
5147;SDS011;2592;48.140;7.614;2023-12-22T10:32:37;13.17;;;3.47;;
5147;SDS011;2592;48.140;7.614;2023-12-22T10:35:05;11.97;;;2.87;;
5147;SDS011;2592;48.140;7.614;2023-12-22T10:37:33;9.20;;;3.77;;
5147;SDS011;2592;48.140;7.614;2023-12-22T10:40:00;17.57;;;2.53;;
5147;SDS011;2592;48.140;7.614;2023-12-22T10:42:29;6.50;;;2.30;;
5147;SDS011;2592;48.140;7.614;2023-12-22T10:44:56;8.97;;;2.57;;
5147;SDS011;2592;48.140;7.614;2023-12-22T10:47:23;15.53;;;3.93;;
5147;SDS011;2592;48.140;7.614;2023-12-22T10:49:49;10.00;;;2.53;;
5147;SDS011;2592;48.140;7.614;2023-12-22T10:52:15;7.67;;;2.50;;
5147;SDS011;2592;48.140;7.614;2023-12-22T10:54:44;7.10;;;2.03;;
5147;SDS011;2592;48.140;7.614;2023-12-22T10:57:11;6.67;;;2.27;;
5147;SDS011;2592;48.140;7.614;2023-12-22T10:59:38;7.80;;;2.50;;
5147;SDS011;2592;48.140;7.614;2023-12-22T11:02:06;8.23;;;2.97;;
5147;SDS011;2592;48.140;7.614;2023-12-22T11:04:35;6.13;;;2.00;;
5147;SDS011;2592;48.140;7.614;2023-12-22T11:07:03;3.13;;;2.20;;
5147;SDS011;2592;48.140;7.614;2023-12-22T11:09:31;6.03;;;3.00;;
5147;SDS011;2592;48.140;7.614;2023-12-22T11:11:59;7.90;;;2.67;;
5147;SDS011;2592;48.140;7.614;2023-12-22T11:14:26;8.03;;;2.97;;
5147;SDS011;2592;48.140;7.614;2023-12-22T11:16:54;8.40;;;2.90;;
5147;SDS011;2592;48.140;7.614;2023-12-22T11:19:21;5.90;;;2.97;;
5147;SDS011;2592;48.140;7.614;2023-12-22T11:21:48;5.50;;;2.70;;
5147;SDS011;2592;48.140;7.614;2023-12-22T11:24:16;23.17;;;12.90;;
5147;SDS011;2592;48.140;7.614;2023-12-22T11:26:43;3.30;;;1.53;;
5147;SDS011;2592;48.140;7.614;2023-12-22T11:29:12;4.90;;;1.90;;
5147;SDS011;2592;48.140;7.614;2023-12-22T11:31:40;4.17;;;1.70;;
5147;SDS011;2592;48.140;7.614;2023-12-22T11:34:07;3.30;;;1.67;;
5147;SDS011;2592;48.140;7.614;2023-12-22T11:36:33;6.03;;;1.80;;
5147;SDS011;2592;48.140;7.614;2023-12-22T11:39:00;4.83;;;1.90;;
5147;SDS011;2592;48.140;7.614;2023-12-22T11:41:27;2.73;;;1.53;;
5147;SDS011;2592;48.140;7.614;2023-12-22T11:43:55;3.27;;;2.40;;
5147;SDS011;2592;48.140;7.614;2023-12-22T11:46:24;3.43;;;1.90;;
5147;SDS011;2592;48.140;7.614;2023-12-22T11:48:51;12.37;;;9.30;;
5147;SDS011;2592;48.140;7.614;2023-12-22T11:51:18;4.30;;;3.27;;
5147;SDS011;2592;48.140;7.614;2023-12-22T11:53:45;27.43;;;19.27;;
5147;SDS011;2592;48.140;7.614;2023-12-22T11:56:12;46.40;;;29.73;;
5147;SDS011;2592;48.140;7.614;2023-12-22T11:58:39;20.87;;;14.20;;
5147;SDS011;2592;48.140;7.614;2023-12-22T12:01:06;7.80;;;4.60;;
5147;SDS011;2592;48.140;7.614;2023-12-22T12:03:35;5.73;;;3.40;;
5147;SDS011;2592;48.140;7.614;2023-12-22T12:06:14;4.20;;;3.20;;
5147;SDS011;2592;48.140;7.614;2023-12-22T12:08:42;4.40;;;1.30;;
5147;SDS011;2592;48.140;7.614;2023-12-22T12:11:08;5.23;;;1.33;;
5147;SDS011;2592;48.140;7.614;2023-12-22T12:13:35;1.63;;;1.50;;
5147;SDS011;2592;48.140;7.614;2023-12-22T12:16:04;1.73;;;0.90;;
5147;SDS011;2592;48.140;7.614;2023-12-22T12:18:34;3.20;;;1.70;;
5147;SDS011;2592;48.140;7.614;2023-12-22T12:21:00;2.70;;;1.40;;
5147;SDS011;2592;48.140;7.614;2023-12-22T12:23:27;2.47;;;1.60;;
5147;SDS011;2592;48.140;7.614;2023-12-22T12:25:54;1.77;;;1.10;;
5147;SDS011;2592;48.140;7.614;2023-12-22T12:28:24;1.53;;;1.43;;
5147;SDS011;2592;48.140;7.614;2023-12-22T12:30:56;2.40;;;1.00;;
5147;SDS011;2592;48.140;7.614;2023-12-22T12:33:23;0.70;;;0.60;;
5147;SDS011;2592;48.140;7.614;2023-12-22T12:35:52;1.87;;;1.00;;
5147;SDS011;2592;48.140;7.614;2023-12-22T12:38:18;1.53;;;1.07;;
5147;SDS011;2592;48.140;7.614;2023-12-22T12:40:47;2.70;;;0.90;;
5147;SDS011;2592;48.140;7.614;2023-12-22T12:43:17;2.23;;;1.00;;
5147;SDS011;2592;48.140;7.614;2023-12-22T12:45:43;1.10;;;1.00;;
5147;SDS011;2592;48.140;7.614;2023-12-22T12:48:09;1.20;;;0.80;;
5147;SDS011;2592;48.140;7.614;2023-12-22T12:50:36;1.67;;;1.03;;
5147;SDS011;2592;48.140;7.614;2023-12-22T12:53:04;1.43;;;1.30;;
5147;SDS011;2592;48.140;7.614;2023-12-22T12:55:32;1.60;;;1.50;;
5147;SDS011;2592;48.140;7.614;2023-12-22T12:57:58;1.47;;;1.37;;
5147;SDS011;2592;48.140;7.614;2023-12-22T13:00:25;1.07;;;0.97;;
5147;SDS011;2592;48.140;7.614;2023-12-22T13:02:53;1.50;;;0.80;;
5147;SDS011;2592;48.140;7.614;2023-12-22T13:05:21;1.90;;;1.70;;
5147;SDS011;2592;48.140;7.614;2023-12-22T13:07:47;2.47;;;1.67;;
5147;SDS011;2592;48.140;7.614;2023-12-22T13:10:21;2.23;;;1.60;;
5147;SDS011;2592;48.140;7.614;2023-12-22T13:12:48;1.20;;;1.10;;
5147;SDS011;2592;48.140;7.614;2023-12-22T13:15:15;1.30;;;0.87;;
5147;SDS011;2592;48.140;7.614;2023-12-22T13:17:42;1.27;;;1.10;;
5147;SDS011;2592;48.140;7.614;2023-12-22T13:20:09;1.43;;;1.00;;
5147;SDS011;2592;48.140;7.614;2023-12-22T13:22:36;2.83;;;1.40;;
5147;SDS011;2592;48.140;7.614;2023-12-22T13:25:03;1.37;;;1.27;;
5147;SDS011;2592;48.140;7.614;2023-12-22T13:27:31;2.53;;;1.70;;
5147;SDS011;2592;48.140;7.614;2023-12-22T13:29:57;1.50;;;1.40;;
5147;SDS011;2592;48.140;7.614;2023-12-22T13:32:24;1.57;;;0.90;;
5147;SDS011;2592;48.140;7.614;2023-12-22T13:34:51;1.57;;;1.10;;
5147;SDS011;2592;48.140;7.614;2023-12-22T13:37:18;1.27;;;1.17;;
5147;SDS011;2592;48.140;7.614;2023-12-22T13:39:44;1.33;;;1.23;;
5147;SDS011;2592;48.140;7.614;2023-12-22T13:42:14;2.77;;;1.20;;
5147;SDS011;2592;48.140;7.614;2023-12-22T13:44:45;1.33;;;1.03;;
5147;SDS011;2592;48.140;7.614;2023-12-22T13:47:14;1.20;;;1.10;;
5147;SDS011;2592;48.140;7.614;2023-12-22T13:49:41;2.03;;;1.10;;
5147;SDS011;2592;48.140;7.614;2023-12-22T13:55:00;1.10;;;1.00;;
5147;SDS011;2592;48.140;7.614;2023-12-22T13:57:27;1.00;;;0.87;;
5147;SDS011;2592;48.140;7.614;2023-12-22T13:59:55;0.90;;;0.60;;
5147;SDS011;2592;48.140;7.614;2023-12-22T14:02:22;1.10;;;0.80;;
5147;SDS011;2592;48.140;7.614;2023-12-22T14:04:49;1.53;;;0.90;;
5147;SDS011;2592;48.140;7.614;2023-12-22T14:07:15;2.60;;;0.70;;
5147;SDS011;2592;48.140;7.614;2023-12-22T14:09:42;3.10;;;1.00;;
5147;SDS011;2592;48.140;7.614;2023-12-22T14:12:08;1.03;;;0.80;;
5147;SDS011;2592;48.140;7.614;2023-12-22T14:14:35;1.70;;;1.13;;
5147;SDS011;2592;48.140;7.614;2023-12-22T14:17:03;1.37;;;1.07;;
5147;SDS011;2592;48.140;7.614;2023-12-22T14:19:29;2.47;;;1.20;;
5147;SDS011;2592;48.140;7.614;2023-12-22T14:21:56;0.87;;;0.70;;
5147;SDS011;2592;48.140;7.614;2023-12-22T14:24:22;1.70;;;0.80;;
5147;SDS011;2592;48.140;7.614;2023-12-22T14:26:52;0.90;;;0.60;;
5147;SDS011;2592;48.140;7.614;2023-12-22T14:29:18;1.97;;;0.83;;
5147;SDS011;2592;48.140;7.614;2023-12-22T14:31:47;1.00;;;0.90;;
5147;SDS011;2592;48.140;7.614;2023-12-22T14:34:15;0.83;;;0.60;;
5147;SDS011;2592;48.140;7.614;2023-12-22T14:36:42;1.57;;;1.47;;
5147;SDS011;2592;48.140;7.614;2023-12-22T14:39:08;1.00;;;0.90;;
5147;SDS011;2592;48.140;7.614;2023-12-22T14:41:38;2.13;;;0.70;;
5147;SDS011;2592;48.140;7.614;2023-12-22T14:44:04;2.30;;;0.90;;
5147;SDS011;2592;48.140;7.614;2023-12-22T14:46:30;0.97;;;0.70;;
5147;SDS011;2592;48.140;7.614;2023-12-22T14:48:57;0.70;;;0.63;;
5147;SDS011;2592;48.140;7.614;2023-12-22T14:51:25;0.80;;;0.60;;
5147;SDS011;2592;48.140;7.614;2023-12-22T14:53:51;0.80;;;0.70;;
5147;SDS011;2592;48.140;7.614;2023-12-22T14:56:17;0.63;;;0.53;;
5147;SDS011;2592;48.140;7.614;2023-12-22T14:58:44;0.67;;;0.57;;
5147;SDS011;2592;48.140;7.614;2023-12-22T15:01:12;0.80;;;0.70;;
5147;SDS011;2592;48.140;7.614;2023-12-22T15:03:38;2.00;;;1.50;;
5147;SDS011;2592;48.140;7.614;2023-12-22T15:06:06;2.43;;;1.97;;
5147;SDS011;2592;48.140;7.614;2023-12-22T15:08:34;3.33;;;2.20;;
5147;SDS011;2592;48.140;7.614;2023-12-22T15:11:00;1.90;;;1.50;;